Time;durP1;ratioP1;P1;durP2;ratioP2;P2;SDS_P1;SDS_P2;PMS_P1;PMS_P2;Temp;Humidity;BMP_temperature;BMP_pressure;BME280_temperature;BME280_humidity;BME280_pressure;Samples;Min_cycle;Max_cycle;Signal;HPM_P1;HPM_P2
2023/10/12 00:00:48;;;;;;;;;;;;;;;;;;6341085;27;20373;-90
2023/10/12 00:03:48;;;;;;;;;;;;;;;;;;6308734;28;20396;-90
2023/10/12 00:06:48;;;;;;;;;;;;;;;;;;6305190;28;19911;-90
2023/10/12 00:09:48;;;;;;;;;;;;;;;;;;6328125;28;19912;-89
2023/10/12 00:12:50;;;;;;;;;;;;;;;;;;6306067;28;20361;-89
2023/10/12 00:15:50;;;;;;;;;;;;;;;;;;6327960;28;19922;-90
2023/10/12 00:18:50;;;;;;;;;;;;;;;;;;6316289;28;19912;-90
2023/10/12 00:21:50;;;;;;;;;;;;;;;;;;6336020;28;20343;-90
2023/10/12 00:24:52;;;;;;;;;;;;;;;;;;6311322;28;20010;-90
2023/10/12 00:27:52;;;;;;;;;;;;;;;;;;6325046;28;19919;-85
2023/10/12 00:30:54;;;;;;;;;;;;;;;;;;6321074;28;19950;-84
2023/10/12 00:33:54;;;;;;;;;;;;;;;;;;6317688;28;20408;-85
2023/10/12 00:36:57;;;;;;;;;;;;;;;;;;6324124;28;19916;-84
2023/10/12 00:39:58;;;;;;;;;;;;;;;;;;6303714;28;20043;-84
2023/10/12 00:43:01;;;;;;;;;;;;;;;;;;6313352;28;20366;-84
2023/10/12 00:46:16;;;;;;;;;;;;;;;;;;6329907;28;20368;-85
2023/10/12 00:52:26;;;;;;;;;;;;;;;;;;6318660;28;19921;-85
2023/10/12 00:55:36;;;;;;;;;;;;;;;;;;6305623;28;19923;-85
2023/10/12 00:58:38;;;;;;;;;;;;;;;;;;6334644;27;19935;-84
2023/10/12 01:01:38;;;;;;;;;;;;;;;;;;6342604;27;20285;-85
2023/10/12 01:04:42;;;;;;;;;;;;;;;;;;6339949;28;19912;-85
2023/10/12 01:07:42;;;;;;;;;;;;;;;;;;6326486;28;19912;-85
2023/10/12 01:10:43;;;;;;;;;;;;;;;;;;6336780;28;19954;-84
2023/10/12 01:13:43;;;;;;;;;;;;;;;;;;6323308;28;20275;-85
2023/10/12 01:16:54;;;;;;;;;;;;;;;;;;6322510;28;19923;-85
2023/10/12 01:19:54;;;;;;;;;;;;;;;;;;6308423;28;19908;-84
2023/10/12 01:22:57;;;;;;;;;;;;;;;;;;6336325;27;19962;-84
2023/10/12 01:26:09;;;;;;;;;;;;;;;;;;6323654;27;19911;-84
2023/10/12 01:29:17;;;;;;;;;;;;;;;;;;6332975;27;19966;-84
2023/10/12 01:35:19;;;;;;;;;;;;;;;;;;6324294;28;19923;-84
2023/10/12 01:38:21;;;;;;;;;;;;;;;;;;6315444;28;19912;-85
2023/10/12 01:41:26;;;;;;;;;;;;;;;;;;6328299;28;20418;-84
2023/10/12 01:44:27;;;;;;;;;;;;;;;;;;6302357;28;20444;-85
2023/10/12 01:47:28;;;;;;;;;;;;;;;;;;6326837;28;19947;-85
2023/10/12 01:50:28;;;;;;;;;;;;;;;;;;6328745;28;19912;-84
2023/10/12 01:53:32;;;;;;;;;;;;;;;;;;6330933;27;19999;-84
2023/10/12 01:56:32;;;;;;;;;;;;;;;;;;6336593;27;20014;-84
2023/10/12 01:59:33;;;;;;;;;;;;;;;;;;6315593;28;19954;-84
2023/10/12 02:02:35;;;;;;;;;;;;;;;;;;6319709;28;21635;-84
2023/10/12 02:05:37;;;;;;;;;;;;;;;;;;6335040;28;19943;-84
2023/10/12 02:08:45;;;;;;;;;;;;;;;;;;6332218;28;19995;-84
2023/10/12 02:11:53;;;;;;;;;;;;;;;;;;6326560;28;19912;-84
2023/10/12 02:14:53;;;;;;;;;;;;;;;;;;6339658;28;19916;-84
2023/10/12 02:17:58;;;;;;;;;;;;;;;;;;6336021;28;19919;-84
2023/10/12 02:21:11;;;;;;;;;;;;;;;;;;6335367;28;19912;-84
2023/10/12 02:24:13;;;;;;;;;;;;;;;;;;6330371;27;19990;-85
2023/10/12 02:27:14;;;;;;;;;;;;;;;;;;6310107;27;19959;-83
2023/10/12 02:30:18;;;;;;;;;;;;;;;;;;6307239;28;19912;-83
2023/10/12 02:33:23;;;;;;;;;;;;;;;;;;6333228;28;19912;-84
2023/10/12 02:36:26;;;;;;;;;;;;;;;;;;6325639;28;19923;-84
2023/10/12 02:39:27;;;;;;;;;;;;;;;;;;6301913;28;19923;-84
2023/10/12 02:42:51;;;;;;;;;;;;;;;;;;6317918;28;19911;-84
2023/10/12 02:45:49;;;;;;;;;;;;;;;;;;6340303;28;20595;-84
2023/10/12 02:48:50;;;;;;;;;;;;;;;;;;6325701;28;19908;-84
2023/10/12 02:51:51;;;;;;;;;;;;;;;;;;6305707;28;19912;-84
2023/10/12 02:54:51;;;;;;;;;;;;;;;;;;6344088;27;20352;-83
2023/10/12 03:01:22;;;;;;;;;;;;;;;;;;6320690;27;19912;-84
2023/10/12 03:04:24;;;;;;;;;;;;;;;;;;6314298;28;19963;-83
2023/10/12 03:07:24;;;;;;;;;;;;;;;;;;6321119;28;20281;-84
2023/10/12 03:10:26;;;;;;;;;;;;;;;;;;6320158;28;19915;-84
2023/10/12 03:13:27;;;;;;;;;;;;;;;;;;6324047;28;20289;-84
2023/10/12 03:16:33;;;;;;;;;;;;;;;;;;6316480;28;20004;-84
2023/10/12 03:19:46;;;;;;;;;;;;;;;;;;6312226;28;19958;-83
2023/10/12 03:22:48;;;;;;;;;;;;;;;;;;6327299;27;20217;-84
2023/10/12 03:25:51;;;;;;;;;;;;;;;;;;6319522;27;20260;-84
2023/10/12 03:28:51;;;;;;;;;;;;;;;;;;6332668;28;19919;-84
2023/10/12 03:31:53;;;;;;;;;;;;;;;;;;6305808;28;19912;-84
2023/10/12 03:34:53;;;;;;;;;;;;;;;;;;6308925;28;20336;-84
2023/10/12 03:38:00;;;;;;;;;;;;;;;;;;6322391;28;19965;-84
2023/10/12 03:44:25;;;;;;;;;;;;;;;;;;6326924;28;20289;-85
2023/10/12 03:47:30;;;;;;;;;;;;;;;;;;6327434;28;19961;-85
2023/10/12 03:50:37;;;;;;;;;;;;;;;;;;6336044;28;20290;-84
2023/10/12 03:53:45;;;;;;;;;;;;;;;;;;6340844;27;20034;-85
2023/10/12 03:56:48;;;;;;;;;;;;;;;;;;6342587;27;20259;-91
2023/10/12 04:00:22;;;;;;;;;;;;;;;;;;6335169;28;20297;-91
2023/10/12 04:03:18;;;;;;;;;;;;;;;;;;6338372;27;20007;-90
2023/10/12 04:06:24;;;;;;;;;;;;;;;;;;6304136;28;19998;-91
2023/10/12 04:09:51;;;;;;;;;;;;;;;;;;6301164;28;19919;-91
2023/10/12 04:13:07;;;;;;;;;;;;;;;;;;6314103;28;19986;-91
2023/10/12 04:19:07;;;;;;;;;;;;;;;;;;6335088;28;20061;-91
2023/10/12 04:22:26;;;;;;;;;;;;;;;;;;6330020;28;20371;-91
2023/10/12 04:28:32;;;;;;;;;;;;;;;;;;6328639;28;20006;-92
2023/10/12 04:31:49;;;;;;;;;;;;;;;;;;6311390;28;19912;-91
2023/10/12 04:34:50;;;;;;;;;;;;;;;;;;6331451;28;20390;-91
2023/10/12 04:37:50;;;;;;;;;;;;;;;;;;6312614;28;19946;-91
2023/10/12 04:47:25;;;;;;;;;;;;;;;;;;6339695;28;19961;-84
2023/10/12 04:50:43;;;;;;;;;;;;;;;;;;6337030;27;20399;-85
2023/10/12 04:54:05;;;;;;;;;;;;;;;;;;6324784;27;20489;-84
2023/10/12 05:00:25;;;;;;;;;;;;;;;;;;6336526;28;19939;-85
2023/10/12 05:03:26;;;;;;;;;;;;;;;;;;6307486;28;19916;-85
2023/10/12 05:06:31;;;;;;;;;;;;;;;;;;6322188;28;19952;-90
2023/10/12 05:09:31;;;;;;;;;;;;;;;;;;6341362;28;19991;-91
2023/10/12 05:12:32;;;;;;;;;;;;;;;;;;6323395;28;19980;-91
2023/10/12 05:18:51;;;;;;;;;;;;;;;;;;6332235;28;19951;-90
2023/10/12 05:21:54;;;;;;;;;;;;;;;;;;6321218;27;20449;-91
2023/10/12 05:24:54;;;;;;;;;;;;;;;;;;6323399;28;20386;-90
2023/10/12 05:28:15;;;;;;;;;;;;;;;;;;6338331;27;19919;-91
2023/10/12 05:31:14;;;;;;;;;;;;;;;;;;6338281;28;19915;-90
2023/10/12 05:34:52;;;;;;;;;;;;;;;;;;6339251;28;19923;-90
2023/10/12 05:37:48;;;;;;;;;;;;;;;;;;6325306;28;20279;-90
2023/10/12 05:40:55;;;;;;;;;;;;;;;;;;6325690;27;20263;-89
2023/10/12 05:43:56;;;;;;;;;;;;;;;;;;6302873;28;19911;-89
2023/10/12 05:47:00;;;;;;;;;;;;;;;;;;6303522;28;19916;-89
2023/10/12 05:50:00;;;;;;;;;;;;;;;;;;6318907;28;19969;-89
2023/10/12 05:53:00;;;;;;;;;;;;;;;;;;6341592;27;19939;-89
2023/10/12 05:56:01;;;;;;;;;;;;;;;;;;6329877;28;19968;-90
2023/10/12 05:59:01;;;;;;;;;;;;;;;;;;6337306;28;19969;-90
2023/10/12 06:02:01;;;;;;;;;;;;;;;;;;6310731;28;20003;-90
2023/10/12 06:05:05;;;;;;;;;;;;;;;;;;6330146;27;20433;-90
2023/10/12 06:08:06;;;;;;;;;;;;;;;;;;6313708;28;19912;-90
2023/10/12 06:11:10;;;;;;;;;;;;;;;;;;6317511;28;19923;-90
2023/10/12 06:14:12;;;;;;;;;;;;;;;;;;6313344;28;19916;-89
2023/10/12 06:17:28;;;;;;;;;;;;;;;;;;6339456;28;19985;-84
2023/10/12 06:20:46;;;;;;;;;;;;;;;;;;6334471;27;19927;-82
2023/10/12 06:23:50;;;;;;;;;;;;;;;;;;6308826;28;20333;-84
2023/10/12 06:26:50;;;;;;;;;;;;;;;;;;6324822;28;19927;-84
2023/10/12 06:29:51;;;;;;;;;;;;;;;;;;6332461;28;19916;-84
2023/10/12 06:32:51;;;;;;;;;;;;;;;;;;6336638;28;19915;-84
2023/10/12 06:36:01;;;;;;;;;;;;;;;;;;6331058;28;19971;-84
2023/10/12 06:42:26;;;;;;;;;;;;;;;;;;6327592;28;19968;-82
2023/10/12 06:45:27;;;;;;;;;;;;;;;;;;6304851;28;20446;-83
2023/10/12 06:51:31;;;;;;;;;;;;;;;;;;6327560;28;20385;-83
2023/10/12 06:54:49;;;;;;;;;;;;;;;;;;6335705;27;20289;-83
2023/10/12 06:57:53;;;;;;;;;;;;;;;;;;6321404;27;20003;-83
2023/10/12 07:01:18;;;;;;;;;;;;;;;;;;6338159;27;20459;-83
2023/10/12 07:04:20;;;;;;;;;;;;;;;;;;6339542;27;20420;-83
2023/10/12 07:07:26;;;;;;;;;;;;;;;;;;6316976;28;19919;-90
2023/10/12 07:10:28;;;;;;;;;;;;;;;;;;6313096;28;19923;-89
2023/10/12 07:13:28;;;;;;;;;;;;;;;;;;6312799;28;20331;-90
2023/10/12 07:16:31;;;;;;;;;;;;;;;;;;6326806;28;19920;-90
2023/10/12 07:19:31;;;;;;;;;;;;;;;;;;6311908;27;19907;-90
2023/10/12 07:22:36;;;;;;;;;;;;;;;;;;6327244;28;19934;-90
2023/10/12 07:25:37;;;;;;;;;;;;;;;;;;6308246;27;19957;-91
2023/10/12 07:28:39;;;;;;;;;;;;;;;;;;6330401;28;19934;-85
2023/10/12 07:31:41;;;;;;;;;;;;;;;;;;6335250;28;20691;-85
2023/10/12 07:34:41;;;;;;;;;;;;;;;;;;6327911;28;19916;-83
2023/10/12 07:37:42;;;;;;;;;;;;;;;;;;6319576;28;19958;-84
2023/10/12 07:40:56;;;;;;;;;;;;;;;;;;6336908;28;20393;-85
2023/10/12 07:43:56;;;;;;;;;;;;;;;;;;6304094;28;19917;-85
2023/10/12 07:46:56;;;;;;;;;;;;;;;;;;6314015;27;19920;-85
2023/10/12 07:50:07;;;;;;;;;;;;;;;;;;6326373;27;19912;-85
2023/10/12 07:53:21;;;;;;;;;;;;;;;;;;6327282;28;20003;-85
2023/10/12 07:56:22;;;;;;;;;;;;;;;;;;6326104;28;19916;-85
2023/10/12 07:59:23;;;;;;;;;;;;;;;;;;6324735;28;19924;-85
2023/10/12 08:02:43;;;;;;;;;;;;;;;;;;6336092;27;19916;-85
2023/10/12 08:05:43;;;;;;;;;;;;;;;;;;6315258;28;19961;-85
2023/10/12 08:08:45;;;;;;;;;;;;;;;;;;6336124;28;19918;-86
2023/10/12 08:11:45;;;;;;;;;;;;;;;;;;6303963;28;19986;-85
2023/10/12 08:14:45;;;;;;;;;;;;;;;;;;6337016;28;20228;-85
2023/10/12 08:17:45;;;;;;;;;;;;;;;;;;6330063;28;19992;-85
2023/10/12 08:20:53;;;;;;;;;;;;;;;;;;6343483;28;20520;-85
2023/10/12 08:27:11;;;;;;;;;;;;;;;;;;6323637;28;19912;-85
2023/10/12 08:30:22;;;;;;;;;;;;;;;;;;6320946;28;20011;-85
2023/10/12 08:33:48;;;;;;;;;;;;;;;;;;6330364;28;20528;-86
2023/10/12 08:37:26;;;;;;;;;;;;;;;;;;6327783;28;19915;-86
2023/10/12 08:40:30;;;;;;;;;;;;;;;;;;6320386;28;19916;-86
2023/10/12 08:43:48;;;;;;;;;;;;;;;;;;6332758;28;19943;-85
2023/10/12 08:46:56;;;;;;;;;;;;;;;;;;6313520;28;19933;-85
2023/10/12 08:50:08;;;;;;;;;;;;;;;;;;6321045;28;19973;-85
2023/10/12 08:53:09;;;;;;;;;;;;;;;;;;6325676;28;20397;-85
2023/10/12 08:56:11;;;;;;;;;;;;;;;;;;6327277;28;20234;-85
2023/10/12 08:59:12;;;;;;;;;;;;;;;;;;6329499;28;20472;-86
2023/10/12 09:02:19;;;;;;;;;;;;;;;;;;6319070;28;19911;-86
2023/10/12 09:05:24;;;;;;;;;;;;;;;;;;6326717;28;19943;-85
2023/10/12 09:11:33;;;;;;;;;;;;;;;;;;6324173;28;19915;-85
2023/10/12 09:14:33;;;;;;;;;;;;;;;;;;6332990;28;19944;-85
2023/10/12 09:17:35;;;;;;;;;;;;;;;;;;6326254;28;19950;-85
2023/10/12 09:20:40;;;;;;;;;;;;;;;;;;6335052;28;20030;-85
2023/10/12 09:23:47;;;;;;;;;;;;;;;;;;6332175;28;19927;-85
2023/10/12 09:26:49;;;;;;;;;;;;;;;;;;6346468;28;19916;-84
2023/10/12 09:29:58;;;;;;;;;;;;;;;;;;6325638;28;19915;-85
2023/10/12 09:33:05;;;;;;;;;;;;;;;;;;6325168;28;19908;-85
2023/10/12 09:36:09;;;;;;;;;;;;;;;;;;6341410;28;19923;-85
2023/10/12 09:39:17;;;;;;;;;;;;;;;;;;6332178;28;20666;-85
2023/10/12 09:42:22;;;;;;;;;;;;;;;;;;6318412;28;19912;-85
2023/10/12 09:45:24;;;;;;;;;;;;;;;;;;6333692;28;19908;-85
2023/10/12 09:48:29;;;;;;;;;;;;;;;;;;6334479;28;19915;-84
2023/10/12 09:51:33;;;;;;;;;;;;;;;;;;6338351;28;19982;-84
2023/10/12 09:54:33;;;;;;;;;;;;;;;;;;6345311;27;19915;-85
2023/10/12 09:57:33;;;;;;;;;;;;;;;;;;6330250;28;20343;-85
2023/10/12 10:04:05;;;;;;;;;;;;;;;;;;6342833;28;20284;-85
2023/10/12 10:07:15;;;;;;;;;;;;;;;;;;6312153;28;19951;-84
2023/10/12 10:10:30;;;;;;;;;;;;;;;;;;6334212;28;19912;-84
2023/10/12 10:13:31;;;;;;;;;;;;;;;;;;6325599;28;19918;-84
2023/10/12 10:16:45;;;;;;;;;;;;;;;;;;6323738;27;20358;-85
2023/10/12 10:19:51;;;;;;;;;;;;;;;;;;6335120;28;19908;-85
2023/10/12 10:22:56;;;;;;;;;;;;;;;;;;6303492;28;19950;-85
2023/10/12 10:29:35;;;;;;;;;;;;;;;;;;6242722;28;19913;-85
2023/10/12 10:32:39;;;;;;;;;;;;;;;;;;6308276;28;19951;-85
2023/10/12 10:35:39;;;;;;;;;;;;;;;;;;6323749;28;20069;-85
2023/10/12 10:38:57;;;;;;;;;;;;;;;;;;6327061;28;19908;-85
2023/10/12 10:42:01;;;;;;;;;;;;;;;;;;6334707;28;19916;-85
2023/10/12 10:45:02;;;;;;;;;;;;;;;;;;6332189;28;19920;-85
2023/10/12 10:48:03;;;;;;;;;;;;;;;;;;6311203;28;20500;-86
2023/10/12 10:51:18;;;;;;;;;;;;;;;;;;6320026;28;19916;-86
2023/10/12 10:54:18;;;;;;;;;;;;;;;;;;6333322;27;19912;-85
2023/10/12 10:57:25;;;;;;;;;;;;;;;;;;6335249;27;19916;-91
2023/10/12 11:00:33;;;;;;;;;;;;;;;;;;6300544;28;19924;-92
2023/10/12 11:03:34;;;;;;;;;;;;;;;;;;6325767;27;20588;-91
2023/10/12 11:06:36;;;;;;;;;;;;;;;;;;6334918;28;19912;-91
2023/10/12 11:12:53;;;;;;;;;;;;;;;;;;6325878;28;19919;-91
2023/10/12 11:15:55;;;;;;;;;;;;;;;;;;6315622;28;19912;-91
2023/10/12 11:18:55;;;;;;;;;;;;;;;;;;6314074;28;19916;-91
2023/10/12 11:21:57;;;;;;;;;;;;;;;;;;6343354;27;19919;-90
2023/10/12 11:24:58;;;;;;;;;;;;;;;;;;6333751;27;19916;-90
2023/10/12 11:27:58;;;;;;;;;;;;;;;;;;6317696;28;20423;-90
2023/10/12 11:31:09;;;;;;;;;;;;;;;;;;6330862;28;19951;-91
2023/10/12 11:34:12;;;;;;;;;;;;;;;;;;6333043;28;19908;-89
2023/10/12 11:37:15;;;;;;;;;;;;;;;;;;6331237;28;19924;-90
2023/10/12 11:40:15;;;;;;;;;;;;;;;;;;6333432;28;19912;-90
2023/10/12 11:43:15;;;;;;;;;;;;;;;;;;6340472;28;19957;-91
2023/10/12 11:46:15;;;;;;;;;;;;;;;;;;6331529;28;20403;-91
2023/10/12 11:49:15;;;;;;;;;;;;;;;;;;6321514;28;19912;-85
2023/10/12 11:52:21;;;;;;;;;;;;;;;;;;6324595;28;19951;-84
2023/10/12 11:55:27;;;;;;;;;;;;;;;;;;6321777;28;20341;-84
2023/10/12 11:58:27;;;;;;;;;;;;;;;;;;6310054;28;19943;-85
2023/10/12 12:01:28;;;;;;;;;;;;;;;;;;6323510;28;20365;-85
2023/10/12 12:04:39;;;;;;;;;;;;;;;;;;6318145;28;19920;-85
2023/10/12 12:07:39;;;;;;;;;;;;;;;;;;6313846;28;19926;-85
2023/10/12 12:10:45;;;;;;;;;;;;;;;;;;6332573;28;19908;-84
2023/10/12 12:13:47;;;;;;;;;;;;;;;;;;6329101;28;19919;-85
2023/10/12 12:16:48;;;;;;;;;;;;;;;;;;6330714;28;19923;-84
2023/10/12 12:19:48;;;;;;;;;;;;;;;;;;6334498;28;20293;-84
2023/10/12 12:22:48;;;;;;;;;;;;;;;;;;6328844;28;20302;-84
2023/10/12 12:25:51;;;;;;;;;;;;;;;;;;6331485;28;19913;-84
2023/10/12 12:29:03;;;;;;;;;;;;;;;;;;6326483;28;19916;-84
2023/10/12 12:32:03;;;;;;;;;;;;;;;;;;6326933;28;19912;-84
2023/10/12 12:35:06;;;;;;;;;;;;;;;;;;6328674;28;19919;-84
2023/10/12 12:38:07;;;;;;;;;;;;;;;;;;6334989;28;19939;-84
2023/10/12 12:41:22;;;;;;;;;;;;;;;;;;6331557;28;19923;-84
2023/10/12 12:44:24;;;;;;;;;;;;;;;;;;6314809;28;19911;-81
2023/10/12 12:47:25;;;;;;;;;;;;;;;;;;6304853;28;20000;-83
2023/10/12 12:50:28;;;;;;;;;;;;;;;;;;6333098;28;19919;-84
2023/10/12 12:53:28;;;;;;;;;;;;;;;;;;6327867;27;19919;-84
2023/10/12 12:56:28;;;;;;;;;;;;;;;;;;6343279;27;20006;-84
2023/10/12 12:59:28;;;;;;;;;;;;;;;;;;6328801;28;19924;-84
2023/10/12 13:02:31;;;;;;;;;;;;;;;;;;6343805;27;19912;-84
2023/10/12 13:05:31;;;;;;;;;;;;;;;;;;6324930;28;20410;-83
2023/10/12 13:08:33;;;;;;;;;;;;;;;;;;6332228;28;19915;-84
2023/10/12 13:11:34;;;;;;;;;;;;;;;;;;6322677;27;19946;-89
2023/10/12 13:14:34;;;;;;;;;;;;;;;;;;6332843;28;19943;-89
2023/10/12 13:17:34;;;;;;;;;;;;;;;;;;6314645;28;19920;-89
2023/10/12 13:20:34;;;;;;;;;;;;;;;;;;6314605;28;20427;-89
2023/10/12 13:23:35;;;;;;;;;;;;;;;;;;6337974;28;19912;-88
2023/10/12 13:26:38;;;;;;;;;;;;;;;;;;6309502;28;19960;-88
2023/10/12 13:29:38;;;;;;;;;;;;;;;;;;6331029;27;19931;-86
2023/10/12 13:32:38;;;;;;;;;;;;;;;;;;6333161;28;19911;-89
2023/10/12 13:35:42;;;;;;;;;;;;;;;;;;6336852;28;19920;-88
2023/10/12 13:38:42;;;;;;;;;;;;;;;;;;6310856;28;19919;-91
2023/10/12 13:41:42;;;;;;;;;;;;;;;;;;6319816;28;20274;-91
2023/10/12 13:44:42;;;;;;;;;;;;;;;;;;6315713;27;19912;-91
2023/10/12 13:47:42;;;;;;;;;;;;;;;;;;6317209;28;19912;-92
2023/10/12 13:50:42;;;;;;;;;;;;;;;;;;6321776;28;19920;-91
2023/10/12 13:53:45;;;;;;;;;;;;;;;;;;6319240;28;19995;-90
2023/10/12 13:56:48;;;;;;;;;;;;;;;;;;6313915;28;20277;-91
2023/10/12 13:59:48;;;;;;;;;;;;;;;;;;6321285;28;20705;-90
2023/10/12 14:02:49;;;;;;;;;;;;;;;;;;6311258;28;19971;-90
2023/10/12 14:05:49;;;;;;;;;;;;;;;;;;6309101;28;20374;-90
2023/10/12 14:08:50;;;;;;;;;;;;;;;;;;6307588;28;19908;-92
2023/10/12 14:11:51;;;;;;;;;;;;;;;;;;6312947;28;19916;-91
2023/10/12 14:14:51;;;;;;;;;;;;;;;;;;6331973;28;19915;-92
2023/10/12 14:17:54;;;;;;;;;;;;;;;;;;6319405;27;20699;-92
2023/10/12 14:20:55;;;;;;;;;;;;;;;;;;6319722;28;19912;-92
2023/10/12 14:24:02;;;;;;;;;;;;;;;;;;6322438;28;19912;-93
2023/10/12 14:27:06;;;;;;;;;;;;;;;;;;6318099;28;19919;-93
2023/10/12 14:30:14;;;;;;;;;;;;;;;;;;6339420;28;19911;-93
2023/10/12 14:33:15;;;;;;;;;;;;;;;;;;6306352;28;19955;-93
2023/10/12 14:36:16;;;;;;;;;;;;;;;;;;6312658;28;19922;-93
2023/10/12 14:39:23;;;;;;;;;;;;;;;;;;6307311;28;19941;-94
2023/10/12 14:42:23;;;;;;;;;;;;;;;;;;6306998;28;19931;-93
2023/10/12 14:45:24;;;;;;;;;;;;;;;;;;6310625;28;20023;-94
2023/10/12 14:48:24;;;;;;;;;;;;;;;;;;6313739;28;20421;-93
2023/10/12 14:51:29;;;;;;;;;;;;;;;;;;6304031;28;19915;-93
2023/10/12 14:54:30;;;;;;;;;;;;;;;;;;6306361;28;20296;-93
2023/10/12 14:57:30;;;;;;;;;;;;;;;;;;6313495;28;20094;-93
2023/10/12 15:00:31;;;;;;;;;;;;;;;;;;6307125;27;19912;-92
2023/10/12 15:03:34;;;;;;;;;;;;;;;;;;6315844;28;19908;-94
2023/10/12 15:06:34;;;;;;;;;;;;;;;;;;6312721;28;19919;-93
2023/10/12 15:09:35;;;;;;;;;;;;;;;;;;6302877;28;19912;-93
2023/10/12 15:12:37;;;;;;;;;;;;;;;;;;6311764;28;19908;-93
2023/10/12 15:15:37;;;;;;;;;;;;;;;;;;6314759;28;20751;-92
2023/10/12 15:18:39;;;;;;;;;;;;;;;;;;6309150;28;19911;-92
2023/10/12 15:21:39;;;;;;;;;;;;;;;;;;6326743;28;19912;-93
2023/10/12 15:24:40;;;;;;;;;;;;;;;;;;6311335;28;19916;-92
2023/10/12 15:27:40;;;;;;;;;;;;;;;;;;6319462;28;19916;-91
2023/10/12 15:30:42;;;;;;;;;;;;;;;;;;6317279;27;19909;-91
2023/10/12 15:33:42;;;;;;;;;;;;;;;;;;6329855;27;20382;-93
2023/10/12 15:36:44;;;;;;;;;;;;;;;;;;6315522;28;19916;-90
2023/10/12 15:39:46;;;;;;;;;;;;;;;;;;6327381;28;19916;-90
2023/10/12 15:42:47;;;;;;;;;;;;;;;;;;6316643;28;20282;-88
2023/10/12 15:45:47;;;;;;;;;;;;;;;;;;6311423;28;19962;-89
2023/10/12 15:48:47;;;;;;;;;;;;;;;;;;6314238;28;19991;-89
2023/10/12 15:51:47;;;;;;;;;;;;;;;;;;6306711;27;19912;-88
2023/10/12 15:54:47;;;;;;;;;;;;;;;;;;6314759;27;19963;-88
2023/10/12 15:57:49;;;;;;;;;;;;;;;;;;6319659;27;19927;-88
2023/10/12 16:00:49;;;;;;;;;;;;;;;;;;6315876;28;19924;-83
2023/10/12 16:03:50;;;;;;;;;;;;;;;;;;6335947;28;19939;-83
2023/10/12 16:06:50;;;;;;;;;;;;;;;;;;6333154;28;19923;-82
2023/10/12 16:09:50;;;;;;;;;;;;;;;;;;6333325;28;19923;-83
2023/10/12 16:12:50;;;;;;;;;;;;;;;;;;6330553;28;19981;-83
2023/10/12 16:15:54;;;;;;;;;;;;;;;;;;6330536;28;19985;-83
2023/10/12 16:18:55;;;;;;;;;;;;;;;;;;6329927;28;19924;-83
2023/10/12 16:21:57;;;;;;;;;;;;;;;;;;6332718;28;19955;-83
2023/10/12 16:24:57;;;;;;;;;;;;;;;;;;6334710;28;19912;-84
2023/10/12 16:27:58;;;;;;;;;;;;;;;;;;6313677;28;19956;-84
2023/10/12 16:30:58;;;;;;;;;;;;;;;;;;6329347;28;19914;-85
2023/10/12 16:33:59;;;;;;;;;;;;;;;;;;6336644;28;19965;-84
2023/10/12 16:36:59;;;;;;;;;;;;;;;;;;6323668;28;19915;-83
2023/10/12 16:39:59;;;;;;;;;;;;;;;;;;6322596;28;19916;-82
2023/10/12 16:43:00;;;;;;;;;;;;;;;;;;6321731;28;19912;-84
2023/10/12 16:46:00;;;;;;;;;;;;;;;;;;6338639;28;19919;-84
2023/10/12 16:49:00;;;;;;;;;;;;;;;;;;6336616;27;19919;-83
2023/10/12 16:52:00;;;;;;;;;;;;;;;;;;6329879;27;19912;-83
2023/10/12 16:55:01;;;;;;;;;;;;;;;;;;6316858;27;19934;-84
2023/10/12 16:58:01;;;;;;;;;;;;;;;;;;6310304;28;20018;-85
2023/10/12 17:01:01;;;;;;;;;;;;;;;;;;6340711;27;19912;-83
2023/10/12 17:04:01;;;;;;;;;;;;;;;;;;6326989;28;19972;-84
2023/10/12 17:07:01;;;;;;;;;;;;;;;;;;6327399;28;20312;-83
2023/10/12 17:10:03;;;;;;;;;;;;;;;;;;6314317;28;19912;-83
2023/10/12 17:13:03;;;;;;;;;;;;;;;;;;6324663;28;19923;-82
2023/10/12 17:16:04;;;;;;;;;;;;;;;;;;6333700;28;19912;-84
2023/10/12 17:19:07;;;;;;;;;;;;;;;;;;6335839;28;19911;-83
2023/10/12 17:22:08;;;;;;;;;;;;;;;;;;6335136;28;19961;-83
2023/10/12 17:25:12;;;;;;;;;;;;;;;;;;6316377;27;20347;-83
2023/10/12 17:28:12;;;;;;;;;;;;;;;;;;6307261;28;19912;-82
2023/10/12 17:31:15;;;;;;;;;;;;;;;;;;6332864;27;20394;-83
2023/10/12 17:34:15;;;;;;;;;;;;;;;;;;6333018;28;19912;-82
2023/10/12 17:37:15;;;;;;;;;;;;;;;;;;6320272;28;19951;-81
2023/10/12 17:40:15;;;;;;;;;;;;;;;;;;6328409;27;19912;-82
2023/10/12 17:43:16;;;;;;;;;;;;;;;;;;6325783;28;20362;-82
2023/10/12 17:46:17;;;;;;;;;;;;;;;;;;6325290;28;19916;-82
2023/10/12 17:49:17;;;;;;;;;;;;;;;;;;6323220;28;19915;-82
2023/10/12 17:52:17;;;;;;;;;;;;;;;;;;6337128;27;19923;-82
2023/10/12 17:55:19;;;;;;;;;;;;;;;;;;6314195;28;20361;-82
2023/10/12 17:58:19;;;;;;;;;;;;;;;;;;6320232;28;20020;-82
2023/10/12 18:01:19;;;;;;;;;;;;;;;;;;6342250;27;19908;-82
2023/10/12 18:04:22;;;;;;;;;;;;;;;;;;6333437;28;20345;-82
2023/10/12 18:07:23;;;;;;;;;;;;;;;;;;6331237;28;19912;-83
2023/10/12 18:10:25;;;;;;;;;;;;;;;;;;6327862;28;20369;-83
2023/10/12 18:13:25;;;;;;;;;;;;;;;;;;6293746;28;19913;-82
2023/10/12 18:16:27;;;;;;;;;;;;;;;;;;6331890;28;19919;-83
2023/10/12 18:19:29;;;;;;;;;;;;;;;;;;6334944;28;19920;-82
2023/10/12 18:22:29;;;;;;;;;;;;;;;;;;6320849;28;19916;-82
2023/10/12 18:25:29;;;;;;;;;;;;;;;;;;6333614;27;19927;-82
2023/10/12 18:28:29;;;;;;;;;;;;;;;;;;6319938;27;20361;-83
2023/10/12 18:31:29;;;;;;;;;;;;;;;;;;6331588;27;19912;-82
2023/10/12 18:34:31;;;;;;;;;;;;;;;;;;6335080;27;20270;-82
2023/10/12 18:37:31;;;;;;;;;;;;;;;;;;6313674;28;19915;-82
2023/10/12 18:40:31;;;;;;;;;;;;;;;;;;6325370;28;19908;-82
2023/10/12 18:43:31;;;;;;;;;;;;;;;;;;6334748;28;19919;-82
2023/10/12 18:46:32;;;;;;;;;;;;;;;;;;6327737;28;19965;-83
2023/10/12 18:49:32;;;;;;;;;;;;;;;;;;6312036;28;19947;-82
2023/10/12 18:52:33;;;;;;;;;;;;;;;;;;6327151;27;19916;-82
2023/10/12 18:55:33;;;;;;;;;;;;;;;;;;6309593;28;20019;-82
2023/10/12 18:58:37;;;;;;;;;;;;;;;;;;6325732;28;19924;-82
2023/10/12 19:01:38;;;;;;;;;;;;;;;;;;6330112;27;19916;-82
2023/10/12 19:04:38;;;;;;;;;;;;;;;;;;6318292;28;20016;-81
2023/10/12 19:07:39;;;;;;;;;;;;;;;;;;6303304;28;19957;-87
2023/10/12 19:10:39;;;;;;;;;;;;;;;;;;6301015;28;19988;-87
2023/10/12 19:13:43;;;;;;;;;;;;;;;;;;6321099;27;19986;-87
2023/10/12 19:16:43;;;;;;;;;;;;;;;;;;6327919;28;20297;-88
2023/10/12 19:19:43;;;;;;;;;;;;;;;;;;6310250;28;19915;-89
2023/10/12 19:22:44;;;;;;;;;;;;;;;;;;6299989;28;20324;-88
2023/10/12 19:25:45;;;;;;;;;;;;;;;;;;6340937;27;19916;-88
2023/10/12 19:28:47;;;;;;;;;;;;;;;;;;6320226;27;19923;-88
2023/10/12 19:31:47;;;;;;;;;;;;;;;;;;6319788;28;19976;-87
2023/10/12 19:34:48;;;;;;;;;;;;;;;;;;6326429;28;20323;-88
2023/10/12 19:37:48;;;;;;;;;;;;;;;;;;6334361;28;19912;-88
2023/10/12 19:40:48;;;;;;;;;;;;;;;;;;6332528;28;20364;-87
2023/10/12 19:43:49;;;;;;;;;;;;;;;;;;6319301;28;20341;-87
2023/10/12 19:46:49;;;;;;;;;;;;;;;;;;6332640;28;19936;-87
2023/10/12 19:49:49;;;;;;;;;;;;;;;;;;6326512;28;20002;-89
2023/10/12 19:52:49;;;;;;;;;;;;;;;;;;6333226;27;19919;-88
2023/10/12 19:55:49;;;;;;;;;;;;;;;;;;6316260;28;19953;-88
2023/10/12 19:58:52;;;;;;;;;;;;;;;;;;6300846;28;19927;-82
2023/10/12 20:01:52;;;;;;;;;;;;;;;;;;6338389;27;20046;-82
2023/10/12 20:04:52;;;;;;;;;;;;;;;;;;6303063;28;19916;-82
2023/10/12 20:07:52;;;;;;;;;;;;;;;;;;6314461;28;19912;-83
2023/10/12 20:10:53;;;;;;;;;;;;;;;;;;6300357;28;19912;-82
2023/10/12 20:13:55;;;;;;;;;;;;;;;;;;6305395;28;20400;-82
2023/10/12 20:16:55;;;;;;;;;;;;;;;;;;6331456;28;20006;-81
2023/10/12 20:19:56;;;;;;;;;;;;;;;;;;6332578;28;20404;-82
2023/10/12 20:22:56;;;;;;;;;;;;;;;;;;6331390;28;20279;-82
2023/10/12 20:25:58;;;;;;;;;;;;;;;;;;6325763;28;19912;-82
2023/10/12 20:28:59;;;;;;;;;;;;;;;;;;6327102;28;19916;-82
2023/10/12 20:31:59;;;;;;;;;;;;;;;;;;6300870;28;20340;-82
2023/10/12 20:35:00;;;;;;;;;;;;;;;;;;6327995;28;19908;-82
2023/10/12 20:38:00;;;;;;;;;;;;;;;;;;6326591;28;19950;-82
2023/10/12 20:41:00;;;;;;;;;;;;;;;;;;6313589;28;19919;-82
2023/10/12 20:44:01;;;;;;;;;;;;;;;;;;6307579;28;19908;-82
2023/10/12 20:47:05;;;;;;;;;;;;;;;;;;6331662;28;19913;-82
2023/10/12 20:50:05;;;;;;;;;;;;;;;;;;6315148;28;19923;-82
2023/10/12 20:53:09;;;;;;;;;;;;;;;;;;6332060;28;20379;-82
2023/10/12 20:56:26;;;;;;;;;;;;;;;;;;6335691;28;19912;-82
2023/10/12 20:59:26;;;;;;;;;;;;;;;;;;6295750;28;19980;-82
2023/10/12 21:02:26;;;;;;;;;;;;;;;;;;6341544;28;19911;-82
2023/10/12 21:05:27;;;;;;;;;;;;;;;;;;6333044;28;19954;-82
2023/10/12 21:08:28;;;;;;;;;;;;;;;;;;6303337;28;19955;-88
2023/10/12 21:11:31;;;;;;;;;;;;;;;;;;6327914;28;19919;-89
2023/10/12 21:14:34;;;;;;;;;;;;;;;;;;6315062;28;20010;-88
2023/10/12 21:17:39;;;;;;;;;;;;;;;;;;6333495;27;19920;-88
2023/10/12 21:20:43;;;;;;;;;;;;;;;;;;6337383;27;19926;-88
2023/10/12 21:23:46;;;;;;;;;;;;;;;;;;6326471;28;20014;-88
2023/10/12 21:26:49;;;;;;;;;;;;;;;;;;6307661;28;19908;-83
2023/10/12 21:29:49;;;;;;;;;;;;;;;;;;6328172;28;19990;-83
2023/10/12 21:32:49;;;;;;;;;;;;;;;;;;6316018;28;19994;-82
2023/10/12 21:35:49;;;;;;;;;;;;;;;;;;6324973;28;20006;-83
2023/10/12 21:38:51;;;;;;;;;;;;;;;;;;6337119;28;20282;-82
2023/10/12 21:41:52;;;;;;;;;;;;;;;;;;6334843;28;19915;-82
2023/10/12 21:44:57;;;;;;;;;;;;;;;;;;6331211;27;20014;-82